Weather reports worldwide

Advertisment
Newton Rigg, United Kingdom (99152): temperature & dewpoint: 03.04.2020 13:00:00 - 09.04.2020 13:00:00 (BST)Newton Rigg, United Kingdom (99152): temperature -20cm & temperature -100cm: 03.04.2020 13:00:00 - 09.04.2020 13:00:00 (BST)Newton Rigg, United Kingdom (99152): precipitation: 03.04.2020 13:00:00 - 09.04.2020 13:00:00 (BST)
Date & Time tt [°C] td [°C] tt -20cm [°C] tt -100cm [°C] rr [mm]
09.04.2020 13:00:00 - - - - -
09.04.2020 12:00:00 11,4 6,9 - - 0,0
09.04.2020 11:00:00 10,9 7,0 - - 0,0
09.04.2020 10:00:00 9,4 6,6 8,2 7,7 0,0
09.04.2020 09:00:00 7,5 6,3 - - 0,0
09.04.2020 08:00:00 6,3 5,1 - - 0,0
09.04.2020 07:00:00 5,6 3,8 - - 0,0
09.04.2020 06:00:00 4,7 3,6 - - 0,0
09.04.2020 05:00:00 3,8 3,0 - - 0,0
09.04.2020 04:00:00 3,0 2,1 - - 0,0
09.04.2020 03:00:00 4,6 3,6 - - 0,0
09.04.2020 02:00:00 4,9 3,6 - - 0,0
09.04.2020 01:00:00 5,3 4,0 - - 0,0
09.04.2020 00:00:00 5,2 2,9 - - 0,0
08.04.2020 23:00:00 6,2 3,5 - - 0,0
08.04.2020 22:00:00 8,8 5,4 - - 0,0
08.04.2020 21:00:00 9,1 5,0 - - 0,0
08.04.2020 20:00:00 11,4 5,5 - - 0,0
08.04.2020 19:00:00 13,9 6,1 - - 0,0
08.04.2020 18:00:00 15,1 6,4 - - 0,0
08.04.2020 17:00:00 16,0 5,6 - - 0,0
08.04.2020 16:00:00 15,7 4,8 - - 0,0
08.04.2020 15:00:00 16,5 6,0 - - 0,0
08.04.2020 14:00:00 15,4 5,5 - - 0,0
08.04.2020 13:00:00 14,6 5,3 - - 0,0
08.04.2020 12:00:00 15,3 5,3 - - 0,0
08.04.2020 11:00:00 13,0 3,5 - - 0,0
08.04.2020 10:00:00 11,5 4,1 8,0 7,5 0,0
08.04.2020 09:00:00 8,6 4,4 - - 0,0
08.04.2020 08:00:00 6,2 4,1 - - 0,0
08.04.2020 07:00:00 4,0 2,2 - - 0,0
08.04.2020 06:00:00 4,0 2,4 - - 0,0
08.04.2020 05:00:00 3,2 1,4 - - 0,0
08.04.2020 04:00:00 3,2 1,5 - - 0,0
08.04.2020 03:00:00 4,0 0,9 - - 0,0
08.04.2020 02:00:00 7,4 2,6 - - 0,0
08.04.2020 01:00:00 6,9 2,0 - - 0,0
08.04.2020 00:00:00 7,5 2,1 - - 0,0
07.04.2020 23:00:00 6,4 3,1 - - 0,0
07.04.2020 22:00:00 9,4 3,3 - - 0,0
07.04.2020 21:00:00 10,4 4,0 - - 0,0
07.04.2020 20:00:00 11,1 3,8 - - 0,0
07.04.2020 19:00:00 13,7 3,5 - - 0,0
07.04.2020 18:00:00 14,2 3,0 - - 0,0
07.04.2020 17:00:00 14,4 2,3 - - 0,0
07.04.2020 16:00:00 14,5 2,0 - - 0,0
07.04.2020 15:00:00 13,2 0,7 - - 0,0
07.04.2020 14:00:00 13,4 0,9 - - 0,0
07.04.2020 13:00:00 13,0 3,6 - - 0,0
07.04.2020 12:00:00 11,9 4,2 - - 0,0
07.04.2020 11:00:00 10,4 5,6 - - 0,0
07.04.2020 10:00:00 8,8 4,9 8,0 7,2 0,0
07.04.2020 09:00:00 7,3 5,2 - - 0,0
07.04.2020 08:00:00 6,3 5,2 - - 0,0
07.04.2020 07:00:00 4,6 4,0 - - 0,0
07.04.2020 06:00:00 3,8 3,0 - - 0,0
07.04.2020 05:00:00 3,3 2,1 - - 0,0
07.04.2020 04:00:00 3,2 2,1 - - 0,0
07.04.2020 03:00:00 4,0 2,6 - - 0,0
07.04.2020 02:00:00 6,0 4,1 - - 0,0
07.04.2020 01:00:00 6,0 2,7 - - 0,0
07.04.2020 00:00:00 7,3 3,7 - - 0,0
06.04.2020 23:00:00 6,3 2,9 - - 0,0
06.04.2020 22:00:00 6,8 2,8 - - 0,0
06.04.2020 21:00:00 8,1 2,6 - - 0,0
06.04.2020 20:00:00 8,7 2,9 - - 0,0
06.04.2020 19:00:00 9,5 3,4 - - 0,0
06.04.2020 18:00:00 10,7 3,5 - - 0,0
06.04.2020 17:00:00 11,5 3,3 - - 0,0
06.04.2020 16:00:00 12,0 3,8 - - 0,0
06.04.2020 15:00:00 11,8 3,1 - - 0,0
06.04.2020 14:00:00 11,0 3,2 - - 0,0
06.04.2020 13:00:00 10,8 4,0 - - 0,0
06.04.2020 12:00:00 11,0 3,4 - - 0,0
06.04.2020 11:00:00 10,7 5,2 - - 0,0
06.04.2020 10:00:00 8,6 6,7 7,9 7,2 0,4
06.04.2020 09:00:00 9,3 6,0 - - 0,0
06.04.2020 08:00:00 9,0 6,1 - - 0,0
06.04.2020 07:00:00 9,3 5,8 - - 0,0
06.04.2020 06:00:00 9,7 5,7 - - 0,0
06.04.2020 05:00:00 9,8 5,6 - - 0,0
06.04.2020 04:00:00 10,9 9,3 - - 0,4
06.04.2020 03:00:00 11,8 9,7 - - 0,2
06.04.2020 02:00:00 12,2 9,5 - - 1,8
06.04.2020 01:00:00 12,9 8,5 - - 0,4
06.04.2020 00:00:00 13,6 7,7 - - 0,0
05.04.2020 23:00:00 14,3 7,3 - - 0,0
05.04.2020 22:00:00 15,2 5,1 - - 0,0
05.04.2020 21:00:00 14,3 4,8 - - 0,0
05.04.2020 20:00:00 16,1 4,4 - - 0,0
05.04.2020 19:00:00 16,8 4,3 - - 0,0
05.04.2020 18:00:00 17,6 3,5 - - 0,0
05.04.2020 17:00:00 17,5 3,6 - - 0,0
05.04.2020 16:00:00 17,8 3,2 - - 0,0
05.04.2020 15:00:00 16,9 3,4 - - 0,0
05.04.2020 14:00:00 15,8 3,0 - - 0,0
05.04.2020 13:00:00 15,6 2,7 - - 0,0
05.04.2020 12:00:00 15,0 3,8 - - 0,0
05.04.2020 11:00:00 14,1 2,7 - - 0,0
05.04.2020 10:00:00 13,0 2,7 7,2 7,2 0,0
05.04.2020 09:00:00 11,1 3,2 - - 0,0
05.04.2020 08:00:00 8,9 2,2 - - 0,0
05.04.2020 07:00:00 7,1 1,3 - - 0,0
05.04.2020 06:00:00 7,6 1,3 - - 0,0
05.04.2020 05:00:00 6,6 1,4 - - 0,0
05.04.2020 04:00:00 6,7 1,3 - - 0,0
05.04.2020 03:00:00 8,0 2,4 - - 0,0
05.04.2020 02:00:00 7,7 3,5 - - 0,0
05.04.2020 01:00:00 8,2 3,8 - - 0,0
05.04.2020 00:00:00 8,1 3,6 - - 0,0
04.04.2020 23:00:00 9,4 4,7 - - 0,0
04.04.2020 22:00:00 9,4 5,5 - - 0,0
04.04.2020 21:00:00 9,0 5,5 - - 0,0
04.04.2020 20:00:00 9,4 5,3 - - 0,0
04.04.2020 19:00:00 10,0 4,9 - - 0,0
04.04.2020 18:00:00 10,3 3,7 - - 0,0
04.04.2020 17:00:00 10,3 2,4 - - 0,0
04.04.2020 16:00:00 10,5 2,2 - - 0,0
04.04.2020 15:00:00 9,5 1,9 - - 0,0
04.04.2020 14:00:00 8,6 3,1 - - 0,0
04.04.2020 13:00:00 8,9 2,6 - - 0,0
04.04.2020 12:00:00 8,7 4,3 - - 0,0
04.04.2020 11:00:00 7,6 5,0 - - 0,2
04.04.2020 10:00:00 8,0 3,8 7,2 7,0 0,0
04.04.2020 09:00:00 8,2 4,8 - - 0,0
04.04.2020 08:00:00 6,2 4,7 - - 0,0
04.04.2020 07:00:00 7,1 5,1 - - 0,2
04.04.2020 06:00:00 6,5 4,7 - - 0,0
04.04.2020 05:00:00 6,5 4,3 - - 0,0
04.04.2020 04:00:00 6,6 4,5 - - 0,0
04.04.2020 03:00:00 7,3 4,6 - - 0,0
04.04.2020 02:00:00 6,3 5,2 - - 0,0
04.04.2020 01:00:00 6,0 4,8 - - 0,0
04.04.2020 00:00:00 6,3 4,5 - - 0,0
03.04.2020 23:00:00 6,7 5,1 - - 0,0
03.04.2020 22:00:00 6,0 4,8 - - 0,0
03.04.2020 21:00:00 6,1 4,6 - - 0,2
03.04.2020 20:00:00 6,2 4,1 - - 0,4
03.04.2020 19:00:00 7,2 3,5 - - 0,0
03.04.2020 18:00:00 7,9 3,1 - - 0,0
03.04.2020 17:00:00 8,4 2,5 - - 0,0
03.04.2020 16:00:00 8,2 3,0 - - 0,0
03.04.2020 15:00:00 7,6 2,4 - - 0,0
03.04.2020 14:00:00 7,0 2,0 - - 0,0
03.04.2020 13:00:00 7,6 2,0 - - 0,0

tt = temperature
td = dewpoint
tt -20cm = temperature -20cm
tt -100cm = temperature -100cm
rr = precipitation

Next stations